createdAt,value
2018-08-13T00:01:20.606Z,15.10
2018-08-13T00:03:49.410Z,15.10
2018-08-13T00:06:18.183Z,15.20
2018-08-13T00:08:47.006Z,15.20
2018-08-13T00:11:15.829Z,15.20
2018-08-13T00:13:44.678Z,15.20
2018-08-13T00:16:13.526Z,15.10
2018-08-13T00:18:42.410Z,15.10
2018-08-13T00:21:11.277Z,15.10
2018-08-13T00:23:40.088Z,15.10
2018-08-13T00:26:08.902Z,15.10
2018-08-13T00:28:37.657Z,15.00
2018-08-13T00:31:06.966Z,15.00
2018-08-13T00:33:35.782Z,14.90
2018-08-13T00:36:04.678Z,14.90
2018-08-13T00:38:33.444Z,14.90
2018-08-13T00:41:02.234Z,14.90
2018-08-13T00:43:31.051Z,14.90
2018-08-13T00:45:59.842Z,14.90
2018-08-13T00:48:28.665Z,14.80
2018-08-13T00:50:57.438Z,14.80
2018-08-13T00:53:26.294Z,14.90
2018-08-13T00:55:55.084Z,14.90
2018-08-13T00:58:23.906Z,14.80
2018-08-13T01:00:52.685Z,14.80
2018-08-13T01:03:21.554Z,14.80
2018-08-13T01:05:50.327Z,14.80
2018-08-13T01:08:19.143Z,14.90
2018-08-13T01:10:47.917Z,14.90
2018-08-13T01:13:16.746Z,14.90
2018-08-13T01:15:45.550Z,14.90
2018-08-13T01:18:14.321Z,14.90
2018-08-13T01:20:43.123Z,14.90
2018-08-13T01:23:12.022Z,14.90
2018-08-13T01:25:40.837Z,14.80
2018-08-13T01:28:09.727Z,14.80
2018-08-13T01:30:38.562Z,14.80
2018-08-13T01:33:07.478Z,14.80
2018-08-13T01:35:36.258Z,14.80
2018-08-13T01:38:05.380Z,14.80
2018-08-13T01:40:34.246Z,14.80
2018-08-13T01:43:03.041Z,14.70
2018-08-13T01:45:31.801Z,14.70
2018-08-13T01:48:00.649Z,14.70
2018-08-13T01:50:29.460Z,14.70
2018-08-13T01:52:58.247Z,14.70
2018-08-13T01:55:27.038Z,14.70
2018-08-13T01:57:55.882Z,14.80
2018-08-13T02:00:24.689Z,14.80
2018-08-13T02:02:53.458Z,14.80
2018-08-13T02:05:22.253Z,14.90
2018-08-13T02:07:51.134Z,14.80
2018-08-13T02:10:19.962Z,14.80
2018-08-13T02:12:48.750Z,14.80
2018-08-13T02:15:17.548Z,14.70
2018-08-13T02:17:46.370Z,14.70
2018-08-13T02:20:15.243Z,14.60
2018-08-13T02:22:44.169Z,14.60
2018-08-13T02:25:13.057Z,14.60
2018-08-13T02:27:41.875Z,14.60
2018-08-13T02:30:12.015Z,14.60
2018-08-13T02:32:40.984Z,14.50
2018-08-13T02:35:10.258Z,14.60
2018-08-13T02:37:39.881Z,14.60
2018-08-13T02:40:10.089Z,14.60
2018-08-13T02:42:38.940Z,14.60
2018-08-13T02:45:09.512Z,14.60
2018-08-13T02:47:38.365Z,14.60
2018-08-13T02:50:09.409Z,14.60
2018-08-13T02:52:38.216Z,14.50
2018-08-13T02:55:07.450Z,14.50
2018-08-13T02:57:36.318Z,14.50
2018-08-13T03:00:07.450Z,14.60
2018-08-13T03:02:36.282Z,14.50
2018-08-13T03:05:06.934Z,14.50
2018-08-13T03:07:35.798Z,14.50
2018-08-13T03:10:06.306Z,14.50
2018-08-13T03:12:35.143Z,14.50
2018-08-13T03:15:03.995Z,14.50
2018-08-13T03:17:33.150Z,14.50
2018-08-13T03:20:02.257Z,14.50
2018-08-13T03:22:31.545Z,14.50
2018-08-13T03:25:01.458Z,14.50
2018-08-13T03:27:30.350Z,14.50
2018-08-13T03:30:00.270Z,14.50
2018-08-13T03:32:29.206Z,14.50
2018-08-13T03:34:58.415Z,14.50
2018-08-13T03:37:27.218Z,14.50
2018-08-13T03:39:56.087Z,14.50
2018-08-13T03:42:24.909Z,14.50
2018-08-13T03:44:53.717Z,14.50
2018-08-13T03:47:22.506Z,14.50
2018-08-13T03:49:51.322Z,14.60
2018-08-13T03:52:20.166Z,14.60
2018-08-13T03:54:48.944Z,14.70
2018-08-13T03:57:17.746Z,14.70
2018-08-13T03:59:46.587Z,14.70
2018-08-13T04:02:15.513Z,14.80
2018-08-13T04:04:44.334Z,14.80
2018-08-13T04:07:13.177Z,14.80
2018-08-13T04:09:44.174Z,14.80
2018-08-13T04:12:13.575Z,14.80
2018-08-13T04:14:42.426Z,14.70
2018-08-13T04:17:11.214Z,14.70
2018-08-13T04:19:40.034Z,14.70
2018-08-13T04:22:08.923Z,14.70
2018-08-13T04:24:37.762Z,14.70
2018-08-13T04:27:06.638Z,14.70
2018-08-13T04:29:35.399Z,14.70
2018-08-13T04:32:04.190Z,14.70
2018-08-13T04:34:32.985Z,14.70
2018-08-13T04:37:01.866Z,14.70
2018-08-13T04:39:30.641Z,14.70
2018-08-13T04:41:59.459Z,14.70
2018-08-13T04:44:28.266Z,14.80
2018-08-13T04:46:57.046Z,14.80
2018-08-13T04:49:25.862Z,14.80
2018-08-13T04:51:54.642Z,14.80
2018-08-13T04:54:23.431Z,14.80
2018-08-13T04:56:52.190Z,14.80
2018-08-13T04:59:21.086Z,14.80
2018-08-13T05:01:49.898Z,14.90
2018-08-13T05:04:18.745Z,15.00
2018-08-13T05:06:47.577Z,15.10
2018-08-13T05:09:16.378Z,15.20
2018-08-13T05:11:45.182Z,15.20
2018-08-13T05:14:13.995Z,15.40
2018-08-13T05:16:42.847Z,15.50
2018-08-13T05:19:11.634Z,15.50
2018-08-13T05:21:40.463Z,15.70
2018-08-13T05:24:09.330Z,15.70
2018-08-13T05:26:38.175Z,15.90
2018-08-13T05:29:06.936Z,15.90
2018-08-13T05:31:35.786Z,16.10
2018-08-13T05:34:04.694Z,16.20
2018-08-13T05:36:33.588Z,16.10
2018-08-13T05:39:02.595Z,16.10
2018-08-13T05:41:31.450Z,16.40
2018-08-13T05:44:00.262Z,16.30
2018-08-13T05:46:29.069Z,16.30
2018-08-13T05:48:57.955Z,16.30
2018-08-13T05:51:26.830Z,16.10
2018-08-13T05:53:55.614Z,16.00
2018-08-13T05:56:24.556Z,15.80
2018-08-13T05:58:53.370Z,15.70
2018-08-13T06:01:22.186Z,15.60
2018-08-13T06:03:51.018Z,15.80
2018-08-13T06:06:19.791Z,15.80
2018-08-13T06:08:48.625Z,15.90
2018-08-13T06:11:17.484Z,15.90
2018-08-13T06:13:46.336Z,16.20
2018-08-13T06:16:15.165Z,16.30
2018-08-13T06:18:43.970Z,16.50
2018-08-13T06:21:12.785Z,16.70
2018-08-13T06:23:41.694Z,16.70
2018-08-13T06:26:10.606Z,16.80
2018-08-13T06:28:39.434Z,16.50
2018-08-13T06:31:08.277Z,16.40
2018-08-13T06:33:37.109Z,16.30
2018-08-13T06:36:06.190Z,16.20
2018-08-13T06:38:34.990Z,16.10
2018-08-13T06:41:03.877Z,16.30
2018-08-13T06:43:32.714Z,16.20
2018-08-13T06:46:01.545Z,16.30
2018-08-13T06:48:30.318Z,16.60
2018-08-13T06:50:59.122Z,16.50
2018-08-13T06:53:27.982Z,16.30
2018-08-13T06:55:56.793Z,16.30
2018-08-13T06:58:25.649Z,16.10
2018-08-13T07:00:54.639Z,16.20
2018-08-13T07:03:23.390Z,16.40
2018-08-13T07:05:52.165Z,16.40
2018-08-13T07:08:21.037Z,16.40
2018-08-13T07:10:49.830Z,16.60
2018-08-13T07:13:18.661Z,16.40
2018-08-13T07:15:47.602Z,16.80
2018-08-13T07:18:16.396Z,16.90
2018-08-13T07:20:45.246Z,17.20
2018-08-13T07:23:14.170Z,17.60
2018-08-13T07:25:43.035Z,17.40
2018-08-13T07:28:11.902Z,17.20
2018-08-13T07:30:40.727Z,17.10
2018-08-13T07:33:09.574Z,17.30
2018-08-13T07:35:38.405Z,17.70
2018-08-13T07:38:07.231Z,18.00
2018-08-13T07:40:36.027Z,18.20
2018-08-13T07:43:05.022Z,18.00
2018-08-13T07:45:33.806Z,17.70
2018-08-13T07:48:02.754Z,17.60
2018-08-13T07:50:31.574Z,17.50
2018-08-13T07:53:00.381Z,17.80
2018-08-13T07:55:29.234Z,17.70
2018-08-13T07:57:58.117Z,17.50
2018-08-13T08:00:27.098Z,17.50
2018-08-13T08:02:55.929Z,17.90
2018-08-13T08:05:24.902Z,18.00
2018-08-13T08:07:53.726Z,17.50
2018-08-13T08:10:22.574Z,17.50
2018-08-13T08:12:51.426Z,17.60
2018-08-13T08:15:20.754Z,18.10
2018-08-13T08:17:49.588Z,18.40
2018-08-13T08:20:18.509Z,17.70
2018-08-13T08:22:47.393Z,17.50
2018-08-13T08:25:18.854Z,18.10
2018-08-13T08:27:47.746Z,18.10
2018-08-13T08:30:16.541Z,18.00
2018-08-13T08:32:45.421Z,17.70
2018-08-13T08:35:15.713Z,17.60
2018-08-13T08:37:45.099Z,17.30
2018-08-13T08:40:18.407Z,17.80
2018-08-13T08:42:47.703Z,18.30
2018-08-13T08:45:19.178Z,18.50
2018-08-13T08:47:48.070Z,19.30
2018-08-13T08:50:17.054Z,19.30
2018-08-13T08:52:46.535Z,19.80
2018-08-13T08:55:16.130Z,19.00
2018-08-13T08:57:45.294Z,18.70
2018-08-13T09:00:18.862Z,19.60
2018-08-13T09:02:47.510Z,19.80
2018-08-13T09:05:16.610Z,20.30
2018-08-13T09:07:45.914Z,19.70
2018-08-13T09:10:14.623Z,20.40
2018-08-13T09:12:43.363Z,20.40
2018-08-13T09:15:14.331Z,20.60
2018-08-13T09:17:54.244Z,20.40
2018-08-13T09:20:34.016Z,20.70
2018-08-13T09:23:13.906Z,20.40
2018-08-13T09:25:53.662Z,20.80
2018-08-13T09:28:33.450Z,21.50
2018-08-13T09:31:13.332Z,20.70
2018-08-13T09:33:53.268Z,20.20
2018-08-13T09:36:22.049Z,20.80
2018-08-13T09:38:50.723Z,21.50
2018-08-13T09:41:19.435Z,21.50
2018-08-13T09:43:48.160Z,21.70
2018-08-13T09:46:16.854Z,20.50
2018-08-13T09:48:45.554Z,20.70
2018-08-13T09:51:14.269Z,20.60
2018-08-13T09:53:43.051Z,21.40
2018-08-13T09:56:11.794Z,22.60
2018-08-13T09:58:40.517Z,23.90
2018-08-13T10:01:10.401Z,24.20
2018-08-13T10:03:39.494Z,22.70
2018-08-13T10:06:08.254Z,21.90
2018-08-13T10:08:36.968Z,21.00
2018-08-13T10:11:05.790Z,20.50
2018-08-13T10:13:34.654Z,20.30
2018-08-13T10:16:03.474Z,20.40
2018-08-13T10:18:32.246Z,20.60
2018-08-13T10:21:00.990Z,21.10
2018-08-13T10:23:29.727Z,21.20
2018-08-13T10:25:58.450Z,20.40
2018-08-13T10:28:27.223Z,20.30
2018-08-13T10:30:55.942Z,20.40
2018-08-13T10:33:24.657Z,20.20
2018-08-13T10:35:53.362Z,20.20
2018-08-13T10:38:22.172Z,20.40
2018-08-13T10:40:51.742Z,20.40
2018-08-13T10:43:20.458Z,20.50
2018-08-13T10:45:49.228Z,20.20
2018-08-13T10:48:17.907Z,20.20
2018-08-13T10:50:46.623Z,20.20
2018-08-13T10:53:15.404Z,20.50
2018-08-13T10:55:44.169Z,20.00
2018-08-13T10:58:12.947Z,20.10
2018-08-13T11:00:41.628Z,20.30
2018-08-13T11:03:10.359Z,20.10
2018-08-13T11:05:39.115Z,20.30
2018-08-13T11:08:07.862Z,20.60
2018-08-13T11:10:36.651Z,20.60
2018-08-13T11:13:05.387Z,21.10
2018-08-13T11:15:34.130Z,21.90
2018-08-13T11:18:02.831Z,21.70
2018-08-13T11:20:31.555Z,21.40
2018-08-13T11:23:00.297Z,21.60
2018-08-13T11:25:29.044Z,20.90
2018-08-13T11:27:57.711Z,21.00
2018-08-13T11:30:26.506Z,21.20
2018-08-13T11:32:55.245Z,21.90
2018-08-13T11:35:23.971Z,22.70
2018-08-13T11:37:52.699Z,22.70
2018-08-13T11:40:21.399Z,22.20
2018-08-13T11:42:50.089Z,22.10
2018-08-13T11:45:18.783Z,22.00
2018-08-13T11:47:47.475Z,22.20
2018-08-13T11:50:19.406Z,22.20
2018-08-13T11:52:49.292Z,22.40
2018-08-13T11:55:18.833Z,22.60
2018-08-13T11:57:48.618Z,23.10
2018-08-13T12:00:17.402Z,24.10
2018-08-13T12:02:46.181Z,24.20
2018-08-13T12:05:15.906Z,24.50
2018-08-13T12:07:45.213Z,26.20
2018-08-13T12:10:14.619Z,26.20
2018-08-13T12:12:43.802Z,27.40
2018-08-13T12:15:13.310Z,27.40
2018-08-13T12:17:42.402Z,28.20
2018-08-13T12:20:16.223Z,28.40
2018-08-13T12:22:45.500Z,29.40
2018-08-13T12:25:21.020Z,28.10
2018-08-13T12:27:49.680Z,29.70
2018-08-13T12:30:18.616Z,31.60
2018-08-13T12:32:48.033Z,30.70
2018-08-13T12:35:16.958Z,30.30
2018-08-13T12:37:45.711Z,31.10
2018-08-13T12:40:14.470Z,30.40
2018-08-13T12:42:43.194Z,30.00
2018-08-13T12:45:14.731Z,27.90
2018-08-13T12:47:43.530Z,27.90
2018-08-13T12:50:14.567Z,27.20
2018-08-13T12:52:44.780Z,26.90
2018-08-13T12:55:13.878Z,26.20
2018-08-13T12:57:42.858Z,26.10
2018-08-13T13:00:13.283Z,29.40
2018-08-13T13:02:42.300Z,28.20
2018-08-13T13:05:12.506Z,26.60
2018-08-13T13:07:41.278Z,26.20
2018-08-13T13:10:12.340Z,26.20
2018-08-13T13:12:41.732Z,26.00
2018-08-13T13:15:12.106Z,26.80
2018-08-13T13:17:40.978Z,26.20
2018-08-13T13:20:13.265Z,27.80
2018-08-13T13:22:41.958Z,27.10
2018-08-13T13:25:10.652Z,26.70
2018-08-13T13:27:39.678Z,27.10
2018-08-13T13:30:10.950Z,29.80
2018-08-13T13:32:39.591Z,30.50
2018-08-13T13:35:09.572Z,32.30
2018-08-13T13:37:38.612Z,32.70
2018-08-13T13:40:09.341Z,33.20
2018-08-13T13:42:38.534Z,31.30
2018-08-13T13:45:07.750Z,31.50
2018-08-13T13:47:36.755Z,31.90
2018-08-13T13:50:06.299Z,27.40
2018-08-13T13:52:35.087Z,27.60
2018-08-13T13:55:04.547Z,27.90
2018-08-13T13:57:33.353Z,29.60
2018-08-13T14:00:02.155Z,30.10
2018-08-13T14:02:30.865Z,29.50
2018-08-13T14:04:59.561Z,29.70
2018-08-13T14:07:28.277Z,27.90
2018-08-13T14:09:56.999Z,28.50
2018-08-13T14:12:25.681Z,27.00
2018-08-13T14:14:54.478Z,26.10
2018-08-13T14:17:23.187Z,26.90
2018-08-13T14:19:51.927Z,27.80
2018-08-13T14:22:20.699Z,27.00
2018-08-13T14:24:50.344Z,26.60
2018-08-13T14:27:19.043Z,26.80
2018-08-13T14:29:47.890Z,27.40
2018-08-13T14:32:16.749Z,27.90
2018-08-13T14:34:45.637Z,27.70
2018-08-13T14:37:14.370Z,26.70
2018-08-13T14:39:43.151Z,26.70
2018-08-13T14:42:11.859Z,26.40
2018-08-13T14:44:40.646Z,25.90
2018-08-13T14:47:09.334Z,25.10
2018-08-13T14:49:38.011Z,24.80
2018-08-13T14:52:06.786Z,25.60
2018-08-13T14:54:35.562Z,26.70
2018-08-13T14:57:04.262Z,26.30
2018-08-13T14:59:33.015Z,26.40
2018-08-13T15:02:01.742Z,26.00
2018-08-13T15:04:30.444Z,25.50
2018-08-13T15:06:59.164Z,24.90
2018-08-13T15:09:27.918Z,25.20
2018-08-13T15:11:56.682Z,25.60
2018-08-13T15:14:25.434Z,25.60
2018-08-13T15:16:54.162Z,26.30
2018-08-13T15:19:22.875Z,24.90
2018-08-13T15:21:51.630Z,25.70
2018-08-13T15:24:20.306Z,26.00
2018-08-13T15:26:49.046Z,25.40
2018-08-13T15:29:17.786Z,24.80
2018-08-13T15:31:46.484Z,24.90
2018-08-13T15:34:15.207Z,24.90
2018-08-13T15:36:43.951Z,25.30
2018-08-13T15:39:12.694Z,25.10
2018-08-13T15:41:41.434Z,25.00
2018-08-13T15:44:10.120Z,25.30
2018-08-13T15:46:38.971Z,24.00
2018-08-13T15:49:07.738Z,25.30
2018-08-13T15:51:36.444Z,24.70
2018-08-13T15:54:05.247Z,25.40
2018-08-13T15:56:33.966Z,24.90
2018-08-13T15:59:02.726Z,24.30
2018-08-13T16:01:31.514Z,24.90
2018-08-13T16:04:00.262Z,24.30
2018-08-13T16:06:28.986Z,24.70
2018-08-13T16:08:57.706Z,24.30
2018-08-13T16:11:26.376Z,24.30
2018-08-13T16:13:55.056Z,25.00
2018-08-13T16:16:23.763Z,24.40
2018-08-13T16:18:52.455Z,24.00
2018-08-13T16:21:21.118Z,23.70
2018-08-13T16:23:50.202Z,23.40
2018-08-13T16:26:19.051Z,23.10
2018-08-13T16:28:47.762Z,23.20
2018-08-13T16:31:16.463Z,23.40
2018-08-13T16:33:45.155Z,24.10
2018-08-13T16:36:13.871Z,23.80
2018-08-13T16:38:42.687Z,24.20
2018-08-13T16:41:11.416Z,23.50
2018-08-13T16:43:40.195Z,23.50
2018-08-13T16:46:08.975Z,23.60
2018-08-13T16:48:37.758Z,23.30
2018-08-13T16:51:06.598Z,24.30
2018-08-13T16:53:35.362Z,23.80
2018-08-13T16:56:04.365Z,23.50
2018-08-13T16:58:33.110Z,23.40
2018-08-13T17:01:02.185Z,23.60
2018-08-13T17:03:30.863Z,23.90
2018-08-13T17:05:59.626Z,24.10
2018-08-13T17:08:28.366Z,24.40
2018-08-13T17:10:57.066Z,23.70
2018-08-13T17:13:25.822Z,23.30
2018-08-13T17:15:54.622Z,23.20
2018-08-13T17:18:23.314Z,23.20
2018-08-13T17:20:52.035Z,23.30
2018-08-13T17:23:20.751Z,24.00
2018-08-13T17:25:49.439Z,23.00
2018-08-13T17:28:18.333Z,22.30
2018-08-13T17:30:47.079Z,21.80
2018-08-13T17:33:15.875Z,21.70
2018-08-13T17:35:44.626Z,21.40
2018-08-13T17:38:13.386Z,21.50
2018-08-13T17:40:43.299Z,21.40
2018-08-13T17:43:12.712Z,20.60
2018-08-13T17:45:45.646Z,20.30
2018-08-13T17:48:15.038Z,19.90
2018-08-13T17:50:44.599Z,19.30
2018-08-13T17:53:14.478Z,18.90
2018-08-13T17:55:43.651Z,18.60
2018-08-13T17:58:12.409Z,18.40
2018-08-13T18:00:41.811Z,18.10
2018-08-13T18:03:10.578Z,18.00
2018-08-13T18:05:40.586Z,17.90
2018-08-13T18:08:10.742Z,17.90
2018-08-13T18:10:40.142Z,17.80
2018-08-13T18:13:10.142Z,17.70
2018-08-13T18:15:41.608Z,17.50
2018-08-13T18:18:10.387Z,17.40
2018-08-13T18:20:39.166Z,17.30
2018-08-13T18:23:10.146Z,17.20
2018-08-13T18:25:38.857Z,17.10
2018-08-13T18:28:07.616Z,17.10
2018-08-13T18:30:36.390Z,17.10
2018-08-13T18:33:05.317Z,17.00
2018-08-13T18:35:34.111Z,17.00
2018-08-13T18:38:03.453Z,16.90
2018-08-13T18:40:33.386Z,16.90
2018-08-13T18:43:02.161Z,16.90
2018-08-13T18:45:30.957Z,16.80
2018-08-13T18:48:01.149Z,16.70
2018-08-13T18:50:29.842Z,16.70
2018-08-13T18:52:58.550Z,16.60
2018-08-13T18:55:28.075Z,16.50
2018-08-13T18:57:56.892Z,16.40
2018-08-13T19:00:27.394Z,16.40
2018-08-13T19:02:57.079Z,16.40
2018-08-13T19:05:27.175Z,16.40
2018-08-13T19:07:55.911Z,16.30
2018-08-13T19:10:24.663Z,16.30
2018-08-13T19:12:53.470Z,16.20
2018-08-13T19:15:24.288Z,16.10
2018-08-13T19:17:53.421Z,16.10
2018-08-13T19:20:22.695Z,16.00
2018-08-13T19:22:53.871Z,15.80
2018-08-13T19:25:26.035Z,15.70
2018-08-13T19:27:55.031Z,15.60
2018-08-13T19:30:25.390Z,15.50
2018-08-13T19:32:54.636Z,15.40
2018-08-13T19:35:23.443Z,15.30
2018-08-13T19:37:52.209Z,15.20
2018-08-13T19:40:22.838Z,15.20
2018-08-13T19:42:51.934Z,15.00
2018-08-13T19:45:21.446Z,14.90
2018-08-13T19:47:50.946Z,14.90
2018-08-13T19:50:19.751Z,14.80
2018-08-13T19:52:49.333Z,14.70
2018-08-13T19:55:23.765Z,14.70
2018-08-13T19:57:52.495Z,14.70
2018-08-13T20:00:24.487Z,14.60
2018-08-13T20:02:53.584Z,14.60
2018-08-13T20:05:25.469Z,14.60
2018-08-13T20:07:55.126Z,14.60
2018-08-13T20:10:24.152Z,14.60
2018-08-13T20:12:53.073Z,14.50
2018-08-13T20:15:22.635Z,14.40
2018-08-13T20:17:51.368Z,14.20
2018-08-13T20:20:20.942Z,14.10
2018-08-13T20:22:50.165Z,14.00
2018-08-13T20:25:20.047Z,13.90
2018-08-13T20:27:49.912Z,13.90
2018-08-13T20:30:22.989Z,13.90
2018-08-13T20:32:53.640Z,13.90
2018-08-13T20:35:22.430Z,13.90
2018-08-13T20:37:51.214Z,13.90
2018-08-13T20:40:21.175Z,14.00
2018-08-13T20:42:50.459Z,14.00
2018-08-13T20:45:20.710Z,14.00
2018-08-13T20:47:49.644Z,14.00
2018-08-13T20:50:20.212Z,14.00
2018-08-13T20:52:50.248Z,13.90
2018-08-13T20:55:20.610Z,13.80
2018-08-13T20:57:49.793Z,13.60
2018-08-13T21:00:20.270Z,13.50
2018-08-13T21:02:49.104Z,13.30
2018-08-13T21:05:18.042Z,13.30
2018-08-13T21:07:47.988Z,13.30
2018-08-13T21:10:26.757Z,13.30
2018-08-13T21:12:55.568Z,13.30
2018-08-13T21:15:24.315Z,13.20
2018-08-13T21:17:53.934Z,13.10
2018-08-13T21:20:25.412Z,13.10
2018-08-13T21:22:54.482Z,13.00
2018-08-13T21:25:23.319Z,12.90
2018-08-13T21:27:52.131Z,12.90
2018-08-13T21:30:20.911Z,12.90
2018-08-13T21:32:49.707Z,12.90
2018-08-13T21:35:22.367Z,12.90
2018-08-13T21:37:51.294Z,12.90
2018-08-13T21:40:20.137Z,12.90
2018-08-13T21:42:49.693Z,12.90
2018-08-13T21:45:18.503Z,12.90
2018-08-13T21:47:47.259Z,12.80
2018-08-13T21:50:19.384Z,12.80
2018-08-13T21:52:49.088Z,12.70
2018-08-13T21:55:17.991Z,12.70
2018-08-13T21:57:46.930Z,12.60
2018-08-13T22:00:27.418Z,12.60
2018-08-13T22:02:58.194Z,12.60
2018-08-13T22:05:27.613Z,12.60
2018-08-13T22:07:56.526Z,12.70
2018-08-13T22:10:25.556Z,12.70
2018-08-13T22:12:59.856Z,12.60
2018-08-13T22:15:30.639Z,12.60
2018-08-13T22:18:01.033Z,12.70
2018-08-13T22:20:30.947Z,12.70
2018-08-13T22:23:00.818Z,12.70
2018-08-13T22:25:32.021Z,12.60
2018-08-13T22:28:01.159Z,12.60
2018-08-13T22:30:31.429Z,12.70
2018-08-13T22:33:00.244Z,12.70
2018-08-13T22:35:28.951Z,12.70
2018-08-13T22:37:58.870Z,12.60
2018-08-13T22:40:28.019Z,12.50
2018-08-13T22:42:57.285Z,12.60
2018-08-13T22:45:26.106Z,12.70
2018-08-13T22:47:56.447Z,12.70
2018-08-13T22:50:25.183Z,12.70
2018-08-13T22:52:53.906Z,12.70
2018-08-13T22:55:23.949Z,12.70
2018-08-13T22:57:52.766Z,12.60
2018-08-13T23:00:22.984Z,12.60
2018-08-13T23:05:24.213Z,12.60
2018-08-13T23:07:52.996Z,12.50
2018-08-13T23:10:23.325Z,12.60
2018-08-13T23:12:53.690Z,12.60
2018-08-13T23:15:22.776Z,12.60
2018-08-13T23:17:52.212Z,12.60
2018-08-13T23:20:23.813Z,12.70
2018-08-13T23:22:57.606Z,12.70
2018-08-13T23:25:27.110Z,12.70
2018-08-13T23:27:57.130Z,12.80
2018-08-13T23:30:26.623Z,12.90
2018-08-13T23:32:56.042Z,12.90
2018-08-13T23:35:25.683Z,13.00
2018-08-13T23:37:56.046Z,13.00
2018-08-13T23:40:25.722Z,13.20
2018-08-13T23:42:56.078Z,13.10
2018-08-13T23:45:29.398Z,13.20
2018-08-13T23:47:58.794Z,13.20
2018-08-13T23:50:28.392Z,13.10
2018-08-13T23:53:01.381Z,13.20
2018-08-13T23:55:38.690Z,13.20
2018-08-13T23:58:09.374Z,13.20
